sensor_id;sensor_type;location;lat;lon;timestamp;P1;durP1;ratioP1;P2;durP2;ratioP2
75261;SDS011;63859;51.064;4.580;2023-07-30T00:02:17;13.68;;;3.53;;
75261;SDS011;63859;51.064;4.580;2023-07-30T00:04:44;8.80;;;3.30;;
75261;SDS011;63859;51.064;4.580;2023-07-30T00:07:11;12.65;;;3.35;;
75261;SDS011;63859;51.064;4.580;2023-07-30T00:09:37;13.23;;;3.40;;
75261;SDS011;63859;51.064;4.580;2023-07-30T00:12:04;12.77;;;3.55;;
75261;SDS011;63859;51.064;4.580;2023-07-30T00:14:30;11.52;;;3.55;;
75261;SDS011;63859;51.064;4.580;2023-07-30T00:16:56;12.30;;;3.25;;
75261;SDS011;63859;51.064;4.580;2023-07-30T00:19:21;15.02;;;3.50;;
75261;SDS011;63859;51.064;4.580;2023-07-30T00:21:47;11.63;;;3.35;;
75261;SDS011;63859;51.064;4.580;2023-07-30T00:24:13;11.48;;;3.15;;
75261;SDS011;63859;51.064;4.580;2023-07-30T00:26:39;10.35;;;3.60;;
75261;SDS011;63859;51.064;4.580;2023-07-30T00:29:04;8.27;;;3.10;;
75261;SDS011;63859;51.064;4.580;2023-07-30T00:31:30;14.27;;;3.17;;
75261;SDS011;63859;51.064;4.580;2023-07-30T00:33:56;12.35;;;3.30;;
75261;SDS011;63859;51.064;4.580;2023-07-30T00:36:21;10.60;;;3.60;;
75261;SDS011;63859;51.064;4.580;2023-07-30T00:38:47;9.93;;;3.50;;
75261;SDS011;63859;51.064;4.580;2023-07-30T00:41:12;10.13;;;3.35;;
75261;SDS011;63859;51.064;4.580;2023-07-30T00:43:38;13.45;;;3.63;;
75261;SDS011;63859;51.064;4.580;2023-07-30T00:46:04;13.57;;;3.63;;
75261;SDS011;63859;51.064;4.580;2023-07-30T00:48:29;13.52;;;3.88;;
75261;SDS011;63859;51.064;4.580;2023-07-30T00:50:55;11.40;;;3.67;;
75261;SDS011;63859;51.064;4.580;2023-07-30T00:53:22;13.98;;;3.72;;
75261;SDS011;63859;51.064;4.580;2023-07-30T00:55:49;11.05;;;3.60;;
75261;SDS011;63859;51.064;4.580;2023-07-30T00:58:15;9.43;;;3.45;;
75261;SDS011;63859;51.064;4.580;2023-07-30T01:00:41;12.50;;;3.38;;
75261;SDS011;63859;51.064;4.580;2023-07-30T01:03:07;13.13;;;3.53;;
75261;SDS011;63859;51.064;4.580;2023-07-30T01:05:33;12.07;;;3.25;;
75261;SDS011;63859;51.064;4.580;2023-07-30T01:07:59;12.40;;;3.45;;
75261;SDS011;63859;51.064;4.580;2023-07-30T01:10:24;15.23;;;3.58;;
75261;SDS011;63859;51.064;4.580;2023-07-30T01:12:51;14.90;;;3.80;;
75261;SDS011;63859;51.064;4.580;2023-07-30T01:15:17;12.27;;;3.65;;
75261;SDS011;63859;51.064;4.580;2023-07-30T01:17:44;20.80;;;3.75;;
75261;SDS011;63859;51.064;4.580;2023-07-30T01:20:10;14.10;;;4.00;;
75261;SDS011;63859;51.064;4.580;2023-07-30T01:22:37;18.48;;;3.60;;
75261;SDS011;63859;51.064;4.580;2023-07-30T01:25:02;11.57;;;3.40;;
75261;SDS011;63859;51.064;4.580;2023-07-30T01:27:29;15.23;;;4.25;;
75261;SDS011;63859;51.064;4.580;2023-07-30T01:32:52;13.40;;;3.40;;
75261;SDS011;63859;51.064;4.580;2023-07-30T01:35:23;12.73;;;3.45;;
75261;SDS011;63859;51.064;4.580;2023-07-30T01:37:52;16.58;;;3.90;;
75261;SDS011;63859;51.064;4.580;2023-07-30T01:40:18;16.80;;;3.72;;
75261;SDS011;63859;51.064;4.580;2023-07-30T01:42:45;12.60;;;3.95;;
75261;SDS011;63859;51.064;4.580;2023-07-30T01:45:10;14.80;;;3.53;;
75261;SDS011;63859;51.064;4.580;2023-07-30T01:47:36;13.20;;;3.70;;
75261;SDS011;63859;51.064;4.580;2023-07-30T01:50:02;14.40;;;3.63;;
75261;SDS011;63859;51.064;4.580;2023-07-30T01:52:28;12.57;;;3.33;;
75261;SDS011;63859;51.064;4.580;2023-07-30T01:54:53;17.17;;;3.75;;
75261;SDS011;63859;51.064;4.580;2023-07-30T01:57:21;14.95;;;3.72;;
75261;SDS011;63859;51.064;4.580;2023-07-30T01:59:46;12.27;;;3.47;;
75261;SDS011;63859;51.064;4.580;2023-07-30T02:02:12;14.35;;;4.10;;
75261;SDS011;63859;51.064;4.580;2023-07-30T02:04:38;15.15;;;3.97;;
75261;SDS011;63859;51.064;4.580;2023-07-30T02:07:03;21.42;;;4.05;;
75261;SDS011;63859;51.064;4.580;2023-07-30T02:09:29;17.92;;;3.85;;
75261;SDS011;63859;51.064;4.580;2023-07-30T02:11:55;18.75;;;4.00;;
75261;SDS011;63859;51.064;4.580;2023-07-30T02:14:20;16.90;;;3.70;;
75261;SDS011;63859;51.064;4.580;2023-07-30T02:16:46;17.98;;;3.65;;
75261;SDS011;63859;51.064;4.580;2023-07-30T02:19:11;19.50;;;4.35;;
75261;SDS011;63859;51.064;4.580;2023-07-30T02:21:37;13.70;;;3.33;;
75261;SDS011;63859;51.064;4.580;2023-07-30T02:24:07;14.25;;;3.35;;
75261;SDS011;63859;51.064;4.580;2023-07-30T02:26:40;16.52;;;3.60;;
75261;SDS011;63859;51.064;4.580;2023-07-30T02:29:05;13.65;;;3.35;;
75261;SDS011;63859;51.064;4.580;2023-07-30T02:31:31;16.90;;;3.75;;
75261;SDS011;63859;51.064;4.580;2023-07-30T02:33:57;14.55;;;3.53;;
75261;SDS011;63859;51.064;4.580;2023-07-30T02:36:23;14.02;;;3.42;;
75261;SDS011;63859;51.064;4.580;2023-07-30T02:38:49;17.63;;;4.75;;
75261;SDS011;63859;51.064;4.580;2023-07-30T02:41:14;13.27;;;3.70;;
75261;SDS011;63859;51.064;4.580;2023-07-30T02:43:41;16.15;;;3.17;;
75261;SDS011;63859;51.064;4.580;2023-07-30T02:46:06;19.42;;;3.75;;
75261;SDS011;63859;51.064;4.580;2023-07-30T02:48:32;16.65;;;3.63;;
75261;SDS011;63859;51.064;4.580;2023-07-30T02:50:58;15.48;;;3.65;;
75261;SDS011;63859;51.064;4.580;2023-07-30T02:53:23;22.23;;;3.70;;
75261;SDS011;63859;51.064;4.580;2023-07-30T02:55:49;16.48;;;3.30;;
75261;SDS011;63859;51.064;4.580;2023-07-30T02:58:15;17.55;;;3.72;;
75261;SDS011;63859;51.064;4.580;2023-07-30T03:00:40;15.02;;;3.88;;
75261;SDS011;63859;51.064;4.580;2023-07-30T03:03:06;16.92;;;3.53;;
75261;SDS011;63859;51.064;4.580;2023-07-30T03:05:31;17.15;;;3.42;;
75261;SDS011;63859;51.064;4.580;2023-07-30T03:07:57;20.52;;;3.45;;
75261;SDS011;63859;51.064;4.580;2023-07-30T03:10:22;14.48;;;3.50;;
75261;SDS011;63859;51.064;4.580;2023-07-30T03:12:48;18.08;;;3.78;;
75261;SDS011;63859;51.064;4.580;2023-07-30T03:15:14;15.38;;;3.28;;
75261;SDS011;63859;51.064;4.580;2023-07-30T03:17:39;12.73;;;3.10;;
75261;SDS011;63859;51.064;4.580;2023-07-30T03:20:05;16.58;;;3.60;;
75261;SDS011;63859;51.064;4.580;2023-07-30T03:22:31;23.63;;;3.80;;
75261;SDS011;63859;51.064;4.580;2023-07-30T03:24:57;11.63;;;3.53;;
75261;SDS011;63859;51.064;4.580;2023-07-30T03:27:23;15.88;;;3.38;;
75261;SDS011;63859;51.064;4.580;2023-07-30T03:29:48;22.90;;;3.80;;
75261;SDS011;63859;51.064;4.580;2023-07-30T03:32:14;14.32;;;3.25;;
75261;SDS011;63859;51.064;4.580;2023-07-30T03:34:39;13.85;;;3.10;;
75261;SDS011;63859;51.064;4.580;2023-07-30T03:37:05;19.17;;;3.60;;
75261;SDS011;63859;51.064;4.580;2023-07-30T03:39:31;18.92;;;3.38;;
75261;SDS011;63859;51.064;4.580;2023-07-30T03:41:56;17.65;;;3.53;;
75261;SDS011;63859;51.064;4.580;2023-07-30T03:44:22;20.90;;;4.57;;
75261;SDS011;63859;51.064;4.580;2023-07-30T03:46:48;18.75;;;3.63;;
75261;SDS011;63859;51.064;4.580;2023-07-30T03:49:13;20.10;;;3.50;;
75261;SDS011;63859;51.064;4.580;2023-07-30T03:51:39;19.35;;;3.58;;
75261;SDS011;63859;51.064;4.580;2023-07-30T03:54:04;15.95;;;3.35;;
75261;SDS011;63859;51.064;4.580;2023-07-30T03:56:30;22.55;;;3.90;;
75261;SDS011;63859;51.064;4.580;2023-07-30T03:58:56;17.63;;;3.03;;
75261;SDS011;63859;51.064;4.580;2023-07-30T04:01:21;18.77;;;3.78;;
75261;SDS011;63859;51.064;4.580;2023-07-30T04:03:47;20.50;;;4.05;;
75261;SDS011;63859;51.064;4.580;2023-07-30T04:06:13;20.83;;;3.65;;
75261;SDS011;63859;51.064;4.580;2023-07-30T04:08:38;21.98;;;4.05;;
75261;SDS011;63859;51.064;4.580;2023-07-30T04:11:04;12.32;;;3.70;;
75261;SDS011;63859;51.064;4.580;2023-07-30T04:13:30;20.63;;;3.50;;
75261;SDS011;63859;51.064;4.580;2023-07-30T04:15:55;13.50;;;3.40;;
75261;SDS011;63859;51.064;4.580;2023-07-30T04:18:21;17.40;;;3.40;;
75261;SDS011;63859;51.064;4.580;2023-07-30T04:20:47;14.95;;;3.63;;
75261;SDS011;63859;51.064;4.580;2023-07-30T04:23:13;16.23;;;3.35;;
75261;SDS011;63859;51.064;4.580;2023-07-30T04:25:39;20.00;;;3.63;;
75261;SDS011;63859;51.064;4.580;2023-07-30T04:28:05;25.90;;;4.25;;
75261;SDS011;63859;51.064;4.580;2023-07-30T04:30:30;23.60;;;3.45;;
75261;SDS011;63859;51.064;4.580;2023-07-30T04:32:57;18.80;;;3.40;;
75261;SDS011;63859;51.064;4.580;2023-07-30T04:35:22;22.80;;;3.85;;
75261;SDS011;63859;51.064;4.580;2023-07-30T04:37:48;16.63;;;4.00;;
75261;SDS011;63859;51.064;4.580;2023-07-30T04:40:13;13.90;;;3.20;;
75261;SDS011;63859;51.064;4.580;2023-07-30T04:42:39;21.42;;;3.70;;
75261;SDS011;63859;51.064;4.580;2023-07-30T04:45:05;30.10;;;4.32;;
75261;SDS011;63859;51.064;4.580;2023-07-30T04:47:31;18.40;;;3.40;;
75261;SDS011;63859;51.064;4.580;2023-07-30T04:49:57;18.60;;;3.30;;
75261;SDS011;63859;51.064;4.580;2023-07-30T04:52:23;23.15;;;3.60;;
75261;SDS011;63859;51.064;4.580;2023-07-30T04:54:48;21.98;;;4.32;;
75261;SDS011;63859;51.064;4.580;2023-07-30T04:57:14;20.50;;;3.90;;
75261;SDS011;63859;51.064;4.580;2023-07-30T04:59:39;16.60;;;4.00;;
75261;SDS011;63859;51.064;4.580;2023-07-30T05:02:05;28.88;;;4.70;;
75261;SDS011;63859;51.064;4.580;2023-07-30T05:04:31;21.60;;;3.95;;
75261;SDS011;63859;51.064;4.580;2023-07-30T05:06:57;20.90;;;3.55;;
75261;SDS011;63859;51.064;4.580;2023-07-30T05:09:22;21.25;;;4.18;;
75261;SDS011;63859;51.064;4.580;2023-07-30T05:11:48;12.95;;;3.22;;
75261;SDS011;63859;51.064;4.580;2023-07-30T05:14:14;25.65;;;4.97;;
75261;SDS011;63859;51.064;4.580;2023-07-30T05:16:39;26.45;;;3.72;;
75261;SDS011;63859;51.064;4.580;2023-07-30T05:19:05;20.05;;;4.07;;
75261;SDS011;63859;51.064;4.580;2023-07-30T05:21:31;23.50;;;3.90;;
75261;SDS011;63859;51.064;4.580;2023-07-30T05:23:56;24.92;;;3.97;;
75261;SDS011;63859;51.064;4.580;2023-07-30T05:26:22;21.35;;;4.32;;
75261;SDS011;63859;51.064;4.580;2023-07-30T05:28:47;18.25;;;3.90;;
75261;SDS011;63859;51.064;4.580;2023-07-30T05:31:13;25.80;;;4.50;;
75261;SDS011;63859;51.064;4.580;2023-07-30T05:33:39;27.42;;;4.00;;
75261;SDS011;63859;51.064;4.580;2023-07-30T05:36:04;22.45;;;3.70;;
75261;SDS011;63859;51.064;4.580;2023-07-30T05:38:31;17.60;;;3.47;;
75261;SDS011;63859;51.064;4.580;2023-07-30T05:40:57;24.85;;;4.28;;
75261;SDS011;63859;51.064;4.580;2023-07-30T05:43:22;20.73;;;4.18;;
75261;SDS011;63859;51.064;4.580;2023-07-30T05:45:48;19.92;;;3.72;;
75261;SDS011;63859;51.064;4.580;2023-07-30T05:48:13;30.63;;;4.20;;
75261;SDS011;63859;51.064;4.580;2023-07-30T05:50:39;21.25;;;4.07;;
75261;SDS011;63859;51.064;4.580;2023-07-30T05:53:05;20.35;;;3.25;;
75261;SDS011;63859;51.064;4.580;2023-07-30T05:55:30;19.08;;;3.63;;
75261;SDS011;63859;51.064;4.580;2023-07-30T05:57:56;26.13;;;4.10;;
75261;SDS011;63859;51.064;4.580;2023-07-30T06:00:21;24.40;;;4.55;;
75261;SDS011;63859;51.064;4.580;2023-07-30T06:02:47;21.70;;;4.03;;
75261;SDS011;63859;51.064;4.580;2023-07-30T06:05:13;21.02;;;5.03;;
75261;SDS011;63859;51.064;4.580;2023-07-30T06:07:38;25.73;;;4.70;;
75261;SDS011;63859;51.064;4.580;2023-07-30T06:10:04;22.33;;;3.63;;
75261;SDS011;63859;51.064;4.580;2023-07-30T06:12:30;25.45;;;4.32;;
75261;SDS011;63859;51.064;4.580;2023-07-30T06:14:56;13.88;;;3.75;;
75261;SDS011;63859;51.064;4.580;2023-07-30T06:17:21;22.65;;;3.90;;
75261;SDS011;63859;51.064;4.580;2023-07-30T06:19:47;19.92;;;4.30;;
75261;SDS011;63859;51.064;4.580;2023-07-30T06:22:13;21.25;;;4.68;;
75261;SDS011;63859;51.064;4.580;2023-07-30T06:24:38;20.08;;;3.90;;
75261;SDS011;63859;51.064;4.580;2023-07-30T06:27:04;24.23;;;4.78;;
75261;SDS011;63859;51.064;4.580;2023-07-30T06:29:30;20.13;;;3.88;;
75261;SDS011;63859;51.064;4.580;2023-07-30T06:31:56;25.67;;;4.35;;
75261;SDS011;63859;51.064;4.580;2023-07-30T06:34:21;15.43;;;4.00;;
75261;SDS011;63859;51.064;4.580;2023-07-30T06:36:47;21.35;;;3.83;;
75261;SDS011;63859;51.064;4.580;2023-07-30T06:39:13;26.00;;;3.83;;
75261;SDS011;63859;51.064;4.580;2023-07-30T06:41:38;20.42;;;3.97;;
75261;SDS011;63859;51.064;4.580;2023-07-30T06:44:04;21.95;;;3.90;;
75261;SDS011;63859;51.064;4.580;2023-07-30T06:46:29;23.60;;;4.07;;
75261;SDS011;63859;51.064;4.580;2023-07-30T06:48:55;21.52;;;3.97;;
75261;SDS011;63859;51.064;4.580;2023-07-30T06:51:23;14.02;;;3.67;;
75261;SDS011;63859;51.064;4.580;2023-07-30T06:53:49;21.13;;;3.95;;
75261;SDS011;63859;51.064;4.580;2023-07-30T06:56:15;21.73;;;3.90;;
75261;SDS011;63859;51.064;4.580;2023-07-30T06:58:41;21.65;;;4.90;;
75261;SDS011;63859;51.064;4.580;2023-07-30T07:01:06;19.40;;;3.50;;
75261;SDS011;63859;51.064;4.580;2023-07-30T07:03:32;22.70;;;4.25;;
75261;SDS011;63859;51.064;4.580;2023-07-30T07:05:58;15.65;;;3.80;;
75261;SDS011;63859;51.064;4.580;2023-07-30T07:08:24;22.30;;;3.92;;
75261;SDS011;63859;51.064;4.580;2023-07-30T07:10:49;19.20;;;3.40;;
75261;SDS011;63859;51.064;4.580;2023-07-30T07:13:15;28.98;;;4.60;;
75261;SDS011;63859;51.064;4.580;2023-07-30T07:15:41;18.30;;;3.47;;
75261;SDS011;63859;51.064;4.580;2023-07-30T07:18:07;18.08;;;3.90;;
75261;SDS011;63859;51.064;4.580;2023-07-30T07:20:33;23.58;;;3.90;;
75261;SDS011;63859;51.064;4.580;2023-07-30T07:22:59;17.13;;;3.72;;
75261;SDS011;63859;51.064;4.580;2023-07-30T07:25:24;19.40;;;4.53;;
75261;SDS011;63859;51.064;4.580;2023-07-30T07:27:50;12.45;;;3.80;;
75261;SDS011;63859;51.064;4.580;2023-07-30T07:30:16;19.23;;;3.97;;
75261;SDS011;63859;51.064;4.580;2023-07-30T07:32:41;18.95;;;4.55;;
75261;SDS011;63859;51.064;4.580;2023-07-30T07:35:07;21.80;;;4.10;;
75261;SDS011;63859;51.064;4.580;2023-07-30T07:37:34;13.40;;;3.72;;
75261;SDS011;63859;51.064;4.580;2023-07-30T07:39:59;16.00;;;4.18;;
75261;SDS011;63859;51.064;4.580;2023-07-30T07:42:25;15.20;;;4.00;;
75261;SDS011;63859;51.064;4.580;2023-07-30T07:44:51;19.05;;;3.47;;
75261;SDS011;63859;51.064;4.580;2023-07-30T07:47:16;14.10;;;3.38;;
75261;SDS011;63859;51.064;4.580;2023-07-30T07:49:42;22.30;;;3.83;;
75261;SDS011;63859;51.064;4.580;2023-07-30T07:52:07;19.33;;;3.75;;
75261;SDS011;63859;51.064;4.580;2023-07-30T07:54:33;20.08;;;4.15;;
75261;SDS011;63859;51.064;4.580;2023-07-30T07:56:59;22.88;;;3.95;;
75261;SDS011;63859;51.064;4.580;2023-07-30T07:59:25;17.92;;;3.65;;
75261;SDS011;63859;51.064;4.580;2023-07-30T08:01:52;14.18;;;3.30;;
75261;SDS011;63859;51.064;4.580;2023-07-30T08:04:18;18.85;;;3.60;;
75261;SDS011;63859;51.064;4.580;2023-07-30T08:06:46;14.38;;;3.20;;
75261;SDS011;63859;51.064;4.580;2023-07-30T08:09:12;21.10;;;3.58;;
75261;SDS011;63859;51.064;4.580;2023-07-30T08:11:38;16.08;;;3.08;;
75261;SDS011;63859;51.064;4.580;2023-07-30T08:14:03;16.98;;;3.50;;
75261;SDS011;63859;51.064;4.580;2023-07-30T08:16:29;13.18;;;3.08;;
75261;SDS011;63859;51.064;4.580;2023-07-30T08:18:54;17.88;;;3.42;;
75261;SDS011;63859;51.064;4.580;2023-07-30T08:21:20;15.38;;;3.40;;
75261;SDS011;63859;51.064;4.580;2023-07-30T08:23:46;19.02;;;3.22;;
75261;SDS011;63859;51.064;4.580;2023-07-30T08:26:12;15.65;;;3.28;;
75261;SDS011;63859;51.064;4.580;2023-07-30T08:28:37;15.70;;;3.38;;
75261;SDS011;63859;51.064;4.580;2023-07-30T08:31:03;12.88;;;2.63;;
75261;SDS011;63859;51.064;4.580;2023-07-30T08:33:30;15.13;;;2.72;;
75261;SDS011;63859;51.064;4.580;2023-07-30T08:35:57;12.35;;;2.80;;
75261;SDS011;63859;51.064;4.580;2023-07-30T08:38:23;9.45;;;2.35;;
75261;SDS011;63859;51.064;4.580;2023-07-30T08:40:49;15.93;;;3.05;;
75261;SDS011;63859;51.064;4.580;2023-07-30T08:43:15;16.92;;;3.05;;
75261;SDS011;63859;51.064;4.580;2023-07-30T08:45:42;7.55;;;2.35;;
75261;SDS011;63859;51.064;4.580;2023-07-30T08:48:08;15.13;;;2.80;;
75261;SDS011;63859;51.064;4.580;2023-07-30T08:50:34;18.00;;;3.20;;
75261;SDS011;63859;51.064;4.580;2023-07-30T08:53:00;11.48;;;3.10;;
75261;SDS011;63859;51.064;4.580;2023-07-30T08:55:28;10.43;;;2.90;;
75261;SDS011;63859;51.064;4.580;2023-07-30T08:57:57;16.42;;;3.03;;
75261;SDS011;63859;51.064;4.580;2023-07-30T09:00:26;13.20;;;2.75;;
75261;SDS011;63859;51.064;4.580;2023-07-30T09:02:56;12.32;;;2.40;;
75261;SDS011;63859;51.064;4.580;2023-07-30T09:05:25;12.02;;;2.58;;
75261;SDS011;63859;51.064;4.580;2023-07-30T09:07:55;9.05;;;1.83;;
75261;SDS011;63859;51.064;4.580;2023-07-30T09:10:21;8.88;;;2.13;;
75261;SDS011;63859;51.064;4.580;2023-07-30T09:12:56;12.40;;;2.40;;
75261;SDS011;63859;51.064;4.580;2023-07-30T09:15:33;12.98;;;2.70;;
75261;SDS011;63859;51.064;4.580;2023-07-30T09:18:02;8.95;;;2.00;;
75261;SDS011;63859;51.064;4.580;2023-07-30T09:20:36;10.30;;;2.42;;
75261;SDS011;63859;51.064;4.580;2023-07-30T09:23:06;5.45;;;1.67;;
75261;SDS011;63859;51.064;4.580;2023-07-30T09:25:32;9.10;;;1.65;;
75261;SDS011;63859;51.064;4.580;2023-07-30T09:27:58;6.00;;;1.80;;
75261;SDS011;63859;51.064;4.580;2023-07-30T09:30:24;8.43;;;1.95;;
75261;SDS011;63859;51.064;4.580;2023-07-30T09:32:55;7.95;;;1.50;;
75261;SDS011;63859;51.064;4.580;2023-07-30T09:35:22;5.95;;;1.52;;
75261;SDS011;63859;51.064;4.580;2023-07-30T09:38:01;5.43;;;1.75;;
75261;SDS011;63859;51.064;4.580;2023-07-30T09:40:34;5.50;;;1.90;;
75261;SDS011;63859;51.064;4.580;2023-07-30T09:43:02;7.45;;;1.73;;
75261;SDS011;63859;51.064;4.580;2023-07-30T09:45:28;5.22;;;1.48;;
75261;SDS011;63859;51.064;4.580;2023-07-30T09:47:59;8.88;;;1.98;;
75261;SDS011;63859;51.064;4.580;2023-07-30T09:50:27;5.80;;;1.83;;
75261;SDS011;63859;51.064;4.580;2023-07-30T09:52:53;7.93;;;2.10;;
75261;SDS011;63859;51.064;4.580;2023-07-30T09:55:19;11.15;;;1.98;;
75261;SDS011;63859;51.064;4.580;2023-07-30T09:57:45;6.82;;;2.20;;
75261;SDS011;63859;51.064;4.580;2023-07-30T10:00:11;6.80;;;2.30;;
75261;SDS011;63859;51.064;4.580;2023-07-30T10:02:38;8.68;;;2.28;;
75261;SDS011;63859;51.064;4.580;2023-07-30T10:05:10;8.48;;;2.00;;
75261;SDS011;63859;51.064;4.580;2023-07-30T10:07:43;8.10;;;2.20;;
75261;SDS011;63859;51.064;4.580;2023-07-30T10:10:13;6.95;;;2.00;;
75261;SDS011;63859;51.064;4.580;2023-07-30T10:12:39;7.43;;;1.92;;
75261;SDS011;63859;51.064;4.580;2023-07-30T10:15:06;6.53;;;2.08;;
75261;SDS011;63859;51.064;4.580;2023-07-30T10:17:32;8.10;;;2.35;;
75261;SDS011;63859;51.064;4.580;2023-07-30T10:20:02;11.63;;;2.33;;
75261;SDS011;63859;51.064;4.580;2023-07-30T10:22:53;10.70;;;2.33;;
75261;SDS011;63859;51.064;4.580;2023-07-30T10:25:27;12.77;;;2.30;;
75261;SDS011;63859;51.064;4.580;2023-07-30T10:28:26;8.88;;;2.67;;
75261;SDS011;63859;51.064;4.580;2023-07-30T10:30:59;12.02;;;2.70;;
75261;SDS011;63859;51.064;4.580;2023-07-30T10:36:10;13.52;;;2.58;;
75261;SDS011;63859;51.064;4.580;2023-07-30T10:38:35;8.35;;;2.50;;
75261;SDS011;63859;51.064;4.580;2023-07-30T10:41:14;14.20;;;2.33;;
75261;SDS011;63859;51.064;4.580;2023-07-30T10:43:46;8.93;;;2.13;;
75261;SDS011;63859;51.064;4.580;2023-07-30T10:46:16;7.05;;;2.15;;
75261;SDS011;63859;51.064;4.580;2023-07-30T10:48:43;8.57;;;1.95;;
75261;SDS011;63859;51.064;4.580;2023-07-30T10:51:12;11.85;;;2.13;;
75261;SDS011;63859;51.064;4.580;2023-07-30T10:53:44;10.13;;;2.30;;
75261;SDS011;63859;51.064;4.580;2023-07-30T10:56:10;7.53;;;2.25;;
75261;SDS011;63859;51.064;4.580;2023-07-30T10:58:37;9.63;;;2.90;;
75261;SDS011;63859;51.064;4.580;2023-07-30T11:01:03;9.57;;;2.33;;
75261;SDS011;63859;51.064;4.580;2023-07-30T11:03:30;12.25;;;2.30;;
75261;SDS011;63859;51.064;4.580;2023-07-30T11:05:57;11.60;;;2.50;;
75261;SDS011;63859;51.064;4.580;2023-07-30T11:08:39;6.60;;;2.22;;
75261;SDS011;63859;51.064;4.580;2023-07-30T11:11:07;8.23;;;1.75;;
75261;SDS011;63859;51.064;4.580;2023-07-30T11:13:41;8.50;;;2.08;;
75261;SDS011;63859;51.064;4.580;2023-07-30T11:16:09;7.32;;;1.75;;
75261;SDS011;63859;51.064;4.580;2023-07-30T11:18:36;6.90;;;2.03;;
75261;SDS011;63859;51.064;4.580;2023-07-30T11:21:05;11.10;;;2.20;;
75261;SDS011;63859;51.064;4.580;2023-07-30T11:23:32;11.88;;;2.10;;
75261;SDS011;63859;51.064;4.580;2023-07-30T11:26:02;9.88;;;2.25;;
75261;SDS011;63859;51.064;4.580;2023-07-30T11:28:36;7.53;;;1.77;;
75261;SDS011;63859;51.064;4.580;2023-07-30T11:33:31;11.05;;;2.03;;
75261;SDS011;63859;51.064;4.580;2023-07-30T11:35:59;4.93;;;1.70;;
75261;SDS011;63859;51.064;4.580;2023-07-30T11:38:27;6.32;;;1.90;;
75261;SDS011;63859;51.064;4.580;2023-07-30T11:40:54;7.25;;;2.00;;
75261;SDS011;63859;51.064;4.580;2023-07-30T11:43:21;8.60;;;2.00;;
75261;SDS011;63859;51.064;4.580;2023-07-30T11:45:47;8.30;;;1.90;;
75261;SDS011;63859;51.064;4.580;2023-07-30T11:48:14;7.63;;;2.08;;
75261;SDS011;63859;51.064;4.580;2023-07-30T11:50:49;11.50;;;2.28;;
75261;SDS011;63859;51.064;4.580;2023-07-30T11:53:16;5.18;;;2.17;;
75261;SDS011;63859;51.064;4.580;2023-07-30T11:55:43;5.65;;;1.60;;
75261;SDS011;63859;51.064;4.580;2023-07-30T11:58:10;8.55;;;2.03;;
75261;SDS011;63859;51.064;4.580;2023-07-30T12:00:38;11.75;;;2.10;;
75261;SDS011;63859;51.064;4.580;2023-07-30T12:03:05;10.82;;;2.22;;
75261;SDS011;63859;51.064;4.580;2023-07-30T12:05:36;10.10;;;2.10;;
75261;SDS011;63859;51.064;4.580;2023-07-30T12:08:02;9.45;;;2.10;;
75261;SDS011;63859;51.064;4.580;2023-07-30T12:10:47;8.98;;;1.90;;
75261;SDS011;63859;51.064;4.580;2023-07-30T12:13:18;7.70;;;1.58;;
75261;SDS011;63859;51.064;4.580;2023-07-30T12:15:51;6.65;;;2.10;;
75261;SDS011;63859;51.064;4.580;2023-07-30T12:18:20;7.47;;;2.10;;
75261;SDS011;63859;51.064;4.580;2023-07-30T12:20:48;8.82;;;1.75;;
75261;SDS011;63859;51.064;4.580;2023-07-30T12:23:18;7.90;;;1.90;;
75261;SDS011;63859;51.064;4.580;2023-07-30T12:25:44;5.97;;;1.80;;
75261;SDS011;63859;51.064;4.580;2023-07-30T12:28:10;5.80;;;1.52;;
75261;SDS011;63859;51.064;4.580;2023-07-30T12:30:36;5.35;;;1.70;;
75261;SDS011;63859;51.064;4.580;2023-07-30T12:33:05;4.82;;;1.67;;
75261;SDS011;63859;51.064;4.580;2023-07-30T12:35:34;7.68;;;1.65;;
75261;SDS011;63859;51.064;4.580;2023-07-30T12:38:01;6.05;;;1.58;;
75261;SDS011;63859;51.064;4.580;2023-07-30T12:40:27;8.25;;;1.50;;
75261;SDS011;63859;51.064;4.580;2023-07-30T12:42:58;7.25;;;1.80;;
75261;SDS011;63859;51.064;4.580;2023-07-30T12:45:28;7.00;;;1.50;;
75261;SDS011;63859;51.064;4.580;2023-07-30T12:47:54;8.90;;;1.95;;
75261;SDS011;63859;51.064;4.580;2023-07-30T12:50:20;8.15;;;1.90;;
75261;SDS011;63859;51.064;4.580;2023-07-30T12:52:45;6.35;;;1.63;;
75261;SDS011;63859;51.064;4.580;2023-07-30T12:55:11;6.80;;;1.90;;
75261;SDS011;63859;51.064;4.580;2023-07-30T12:57:37;8.30;;;1.60;;
75261;SDS011;63859;51.064;4.580;2023-07-30T13:00:02;4.43;;;1.52;;
75261;SDS011;63859;51.064;4.580;2023-07-30T13:02:29;6.75;;;1.60;;
75261;SDS011;63859;51.064;4.580;2023-07-30T13:04:58;5.20;;;1.85;;
75261;SDS011;63859;51.064;4.580;2023-07-30T13:07:24;6.28;;;1.67;;
75261;SDS011;63859;51.064;4.580;2023-07-30T13:09:51;6.90;;;1.90;;
75261;SDS011;63859;51.064;4.580;2023-07-30T13:12:31;6.35;;;1.50;;
75261;SDS011;63859;51.064;4.580;2023-07-30T13:14:57;5.07;;;1.70;;
75261;SDS011;63859;51.064;4.580;2023-07-30T13:17:23;6.38;;;1.63;;
75261;SDS011;63859;51.064;4.580;2023-07-30T13:19:48;6.43;;;1.73;;
75261;SDS011;63859;51.064;4.580;2023-07-30T13:22:14;5.90;;;1.77;;
75261;SDS011;63859;51.064;4.580;2023-07-30T13:24:40;7.30;;;1.38;;
75261;SDS011;63859;51.064;4.580;2023-07-30T13:27:05;6.82;;;1.50;;
75261;SDS011;63859;51.064;4.580;2023-07-30T13:29:31;6.50;;;1.48;;
75261;SDS011;63859;51.064;4.580;2023-07-30T13:31:56;6.00;;;1.65;;
75261;SDS011;63859;51.064;4.580;2023-07-30T13:34:22;4.95;;;2.00;;
75261;SDS011;63859;51.064;4.580;2023-07-30T13:36:48;5.88;;;1.80;;
75261;SDS011;63859;51.064;4.580;2023-07-30T13:39:13;5.60;;;1.85;;
75261;SDS011;63859;51.064;4.580;2023-07-30T13:41:40;7.75;;;1.95;;
75261;SDS011;63859;51.064;4.580;2023-07-30T13:44:05;5.65;;;1.85;;
75261;SDS011;63859;51.064;4.580;2023-07-30T13:46:31;4.90;;;1.65;;
75261;SDS011;63859;51.064;4.580;2023-07-30T13:48:57;7.30;;;1.90;;
75261;SDS011;63859;51.064;4.580;2023-07-30T13:51:22;2.75;;;1.70;;
75261;SDS011;63859;51.064;4.580;2023-07-30T13:53:48;5.57;;;1.60;;
75261;SDS011;63859;51.064;4.580;2023-07-30T13:56:14;5.60;;;1.75;;
75261;SDS011;63859;51.064;4.580;2023-07-30T13:58:39;5.75;;;1.90;;
75261;SDS011;63859;51.064;4.580;2023-07-30T14:01:05;2.55;;;1.35;;
75261;SDS011;63859;51.064;4.580;2023-07-30T14:03:31;9.82;;;2.17;;
75261;SDS011;63859;51.064;4.580;2023-07-30T14:05:57;6.80;;;2.00;;
75261;SDS011;63859;51.064;4.580;2023-07-30T14:08:23;6.55;;;2.20;;
75261;SDS011;63859;51.064;4.580;2023-07-30T14:10:49;6.70;;;1.83;;
75261;SDS011;63859;51.064;4.580;2023-07-30T14:13:14;3.90;;;1.95;;
75261;SDS011;63859;51.064;4.580;2023-07-30T14:15:40;6.47;;;2.10;;
75261;SDS011;63859;51.064;4.580;2023-07-30T14:18:06;5.30;;;2.10;;
75261;SDS011;63859;51.064;4.580;2023-07-30T14:20:32;9.18;;;2.20;;
75261;SDS011;63859;51.064;4.580;2023-07-30T14:22:57;6.20;;;1.92;;
75261;SDS011;63859;51.064;4.580;2023-07-30T14:25:26;8.93;;;1.92;;
75261;SDS011;63859;51.064;4.580;2023-07-30T14:27:52;6.03;;;2.10;;
75261;SDS011;63859;51.064;4.580;2023-07-30T14:30:17;6.47;;;2.10;;
75261;SDS011;63859;51.064;4.580;2023-07-30T14:32:43;5.68;;;1.88;;
75261;SDS011;63859;51.064;4.580;2023-07-30T14:35:09;5.32;;;2.15;;
75261;SDS011;63859;51.064;4.580;2023-07-30T14:37:34;6.10;;;1.83;;
75261;SDS011;63859;51.064;4.580;2023-07-30T14:40:00;7.55;;;2.13;;
75261;SDS011;63859;51.064;4.580;2023-07-30T14:42:25;5.78;;;1.90;;
75261;SDS011;63859;51.064;4.580;2023-07-30T14:44:51;7.53;;;2.33;;